createdAt,value
2017-11-09T00:03:42.981Z,70.00
2017-11-09T00:06:16.147Z,70.00
2017-11-09T00:08:43.624Z,70.00
2017-11-09T00:11:11.080Z,70.00
2017-11-09T00:13:38.563Z,70.00
2017-11-09T00:16:06.778Z,70.10
2017-11-09T00:18:38.233Z,70.10
2017-11-09T00:21:05.682Z,70.10
2017-11-09T00:23:34.092Z,70.10
2017-11-09T00:26:01.554Z,70.20
2017-11-09T00:28:29.040Z,70.20
2017-11-09T00:30:57.263Z,70.20
2017-11-09T00:33:24.747Z,70.00
2017-11-09T00:35:52.282Z,70.20
2017-11-09T00:38:19.740Z,70.10
2017-11-09T00:40:47.201Z,70.20
2017-11-09T00:43:14.688Z,70.10
2017-11-09T00:45:42.179Z,70.20
2017-11-09T00:48:09.638Z,70.20
2017-11-09T00:50:37.103Z,70.10
2017-11-09T00:53:04.776Z,70.00
2017-11-09T00:55:32.238Z,70.10
2017-11-09T00:57:59.717Z,70.00
2017-11-09T01:00:27.180Z,70.20
2017-11-09T01:02:54.667Z,70.10
2017-11-09T01:05:22.133Z,69.90
2017-11-09T01:07:50.387Z,70.00
2017-11-09T01:10:17.851Z,69.90
2017-11-09T01:12:45.346Z,69.90
2017-11-09T01:15:12.811Z,69.80
2017-11-09T01:17:40.291Z,69.90
2017-11-09T01:20:07.760Z,70.10
2017-11-09T01:22:36.163Z,69.90
2017-11-09T01:25:03.627Z,69.70
2017-11-09T01:27:31.087Z,70.00
2017-11-09T01:29:58.569Z,69.80
2017-11-09T01:32:26.810Z,69.90
2017-11-09T01:34:54.312Z,69.90
2017-11-09T01:37:21.776Z,70.10
2017-11-09T01:39:49.252Z,70.10
2017-11-09T01:42:16.730Z,70.00
2017-11-09T01:44:44.191Z,70.20
2017-11-09T01:47:11.676Z,70.30
2017-11-09T01:49:39.177Z,70.30
2017-11-09T01:52:06.637Z,70.30
2017-11-09T01:54:34.118Z,70.30
2017-11-09T01:57:01.658Z,70.30
2017-11-09T01:59:29.115Z,70.40
2017-11-09T02:01:56.940Z,70.40
2017-11-09T02:04:25.339Z,70.20
2017-11-09T02:06:52.829Z,70.20
2017-11-09T02:09:20.318Z,70.20
2017-11-09T02:11:47.807Z,70.30
2017-11-09T02:14:16.044Z,70.50
2017-11-09T02:16:43.491Z,70.40
2017-11-09T02:19:10.966Z,70.50
2017-11-09T02:21:38.422Z,70.50
2017-11-09T02:24:06.440Z,70.50
2017-11-09T02:26:35.010Z,70.30
2017-11-09T02:29:03.261Z,70.20
2017-11-09T02:31:30.718Z,70.20
2017-11-09T02:33:58.213Z,70.20
2017-11-09T02:36:26.449Z,70.20
2017-11-09T02:38:53.944Z,70.20
2017-11-09T02:41:22.173Z,70.10
2017-11-09T02:43:49.636Z,70.00
2017-11-09T02:46:17.115Z,70.00
2017-11-09T02:48:44.608Z,69.80
2017-11-09T02:51:12.074Z,69.90
2017-11-09T02:53:39.535Z,70.00
2017-11-09T02:56:07.022Z,70.10
2017-11-09T02:58:34.482Z,70.10
2017-11-09T03:01:01.967Z,70.10
2017-11-09T03:03:29.434Z,70.00
2017-11-09T03:05:57.672Z,70.10
2017-11-09T03:08:25.146Z,70.00
2017-11-09T03:10:52.603Z,70.10
2017-11-09T03:13:20.091Z,70.20
2017-11-09T03:15:47.547Z,70.20
2017-11-09T03:18:15.767Z,70.10
2017-11-09T03:20:43.266Z,70.10
2017-11-09T03:23:10.713Z,71.00
2017-11-09T03:25:38.296Z,70.00
2017-11-09T03:28:06.583Z,70.00
2017-11-09T03:30:34.828Z,69.90
2017-11-09T03:33:02.302Z,69.90
2017-11-09T03:35:30.522Z,71.10
2017-11-09T03:37:57.998Z,70.10
2017-11-09T03:40:26.250Z,70.10
2017-11-09T03:42:53.737Z,70.10
2017-11-09T03:45:21.191Z,70.20
2017-11-09T03:47:48.646Z,70.20
2017-11-09T03:50:16.136Z,71.10
2017-11-09T03:52:43.620Z,70.30
2017-11-09T03:55:11.884Z,70.10
2017-11-09T03:57:40.112Z,70.20
2017-11-09T04:00:09.028Z,70.20
2017-11-09T04:02:36.517Z,70.20
2017-11-09T04:05:04.747Z,70.60
2017-11-09T04:07:32.287Z,71.00
2017-11-09T04:09:59.771Z,70.20
2017-11-09T04:12:27.254Z,70.20
2017-11-09T04:14:54.713Z,70.30
2017-11-09T04:17:22.226Z,70.50
2017-11-09T04:19:49.686Z,70.30
2017-11-09T04:22:17.144Z,70.10
2017-11-09T04:24:44.615Z,70.00
2017-11-09T04:27:12.095Z,70.30
2017-11-09T04:29:39.984Z,70.40
2017-11-09T04:32:07.438Z,70.40
2017-11-09T04:34:34.934Z,70.40
2017-11-09T04:37:02.396Z,70.20
2017-11-09T04:39:29.879Z,70.00
2017-11-09T04:41:57.357Z,70.10
2017-11-09T04:44:24.819Z,70.10
2017-11-09T04:46:52.314Z,70.00
2017-11-09T04:49:19.791Z,70.10
2017-11-09T04:51:47.270Z,70.10
2017-11-09T04:54:14.759Z,70.00
2017-11-09T04:56:42.215Z,70.10
2017-11-09T04:59:09.751Z,69.90
2017-11-09T05:01:37.216Z,70.00
2017-11-09T05:04:04.670Z,70.10
2017-11-09T05:06:32.154Z,70.00
2017-11-09T05:09:00.403Z,70.50
2017-11-09T05:11:27.893Z,69.70
2017-11-09T05:13:56.115Z,69.70
2017-11-09T05:16:23.651Z,69.60
2017-11-09T05:18:51.132Z,69.60
2017-11-09T05:21:18.587Z,69.70
2017-11-09T05:23:46.068Z,69.80
2017-11-09T05:26:13.523Z,69.90
2017-11-09T05:28:41.030Z,70.00
2017-11-09T05:31:10.187Z,70.10
2017-11-09T05:33:37.662Z,70.00
2017-11-09T05:36:05.147Z,70.20
2017-11-09T05:38:33.368Z,70.20
2017-11-09T05:41:00.828Z,70.20
2017-11-09T05:43:28.307Z,70.00
2017-11-09T05:45:55.820Z,69.90
2017-11-09T05:48:23.317Z,69.90
2017-11-09T05:50:50.799Z,69.80
2017-11-09T05:53:18.255Z,69.90
2017-11-09T05:55:45.752Z,69.80
2017-11-09T05:58:13.297Z,69.90
2017-11-09T06:00:40.814Z,70.00
2017-11-09T06:03:08.287Z,70.00
2017-11-09T06:05:35.771Z,70.00
2017-11-09T06:08:03.997Z,70.00
2017-11-09T06:10:31.478Z,70.00
2017-11-09T06:12:58.945Z,69.80
2017-11-09T06:15:27.230Z,69.90
2017-11-09T06:17:55.479Z,70.00
2017-11-09T06:20:22.943Z,70.00
2017-11-09T06:22:50.407Z,70.00
2017-11-09T06:25:17.891Z,70.00
2017-11-09T06:27:45.357Z,70.00
2017-11-09T06:30:12.820Z,69.90
2017-11-09T06:32:41.236Z,69.90
2017-11-09T06:35:08.704Z,70.00
2017-11-09T06:37:36.162Z,69.80
2017-11-09T06:40:03.648Z,69.90
2017-11-09T06:42:31.131Z,70.00
2017-11-09T06:44:58.759Z,70.20
2017-11-09T06:47:26.274Z,70.90
2017-11-09T06:49:53.730Z,69.90
2017-11-09T06:52:21.219Z,69.90
2017-11-09T06:54:48.775Z,70.00
2017-11-09T06:57:16.373Z,69.90
2017-11-09T06:59:44.610Z,70.00
2017-11-09T07:02:12.127Z,69.90
2017-11-09T07:04:39.605Z,70.00
2017-11-09T07:07:07.098Z,69.80
2017-11-09T07:09:34.552Z,69.60
2017-11-09T07:12:02.236Z,69.50
2017-11-09T07:14:29.750Z,69.60
2017-11-09T07:16:58.058Z,69.40
2017-11-09T07:19:26.322Z,69.30
2017-11-09T07:21:53.789Z,69.30
2017-11-09T07:24:21.268Z,69.20
2017-11-09T07:26:49.500Z,69.00
2017-11-09T07:29:17.717Z,69.00
2017-11-09T07:31:45.198Z,68.90
2017-11-09T07:34:12.655Z,68.80
2017-11-09T07:36:40.199Z,68.80
2017-11-09T07:39:08.455Z,69.00
2017-11-09T07:41:35.911Z,68.90
2017-11-09T07:44:04.131Z,68.80
2017-11-09T07:46:31.628Z,68.80
2017-11-09T07:48:59.087Z,68.80
2017-11-09T07:51:26.534Z,68.20
2017-11-09T07:53:54.778Z,67.60
2017-11-09T07:56:22.271Z,67.60
2017-11-09T07:58:49.726Z,67.40
2017-11-09T08:01:17.948Z,67.10
2017-11-09T08:03:46.201Z,67.10
2017-11-09T08:06:13.655Z,67.10
2017-11-09T08:08:41.133Z,67.00
2017-11-09T08:11:08.620Z,66.60
2017-11-09T08:13:36.127Z,66.50
2017-11-09T08:16:03.604Z,66.50
2017-11-09T08:18:31.062Z,65.80
2017-11-09T08:20:58.541Z,65.50
2017-11-09T08:23:26.781Z,65.70
2017-11-09T08:25:55.175Z,65.60
2017-11-09T08:28:24.104Z,65.80
2017-11-09T08:30:52.488Z,65.70
2017-11-09T08:33:23.148Z,65.50
2017-11-09T08:35:50.651Z,65.20
2017-11-09T08:38:18.876Z,65.70
2017-11-09T08:40:46.361Z,65.70
2017-11-09T08:43:13.846Z,65.40
2017-11-09T08:45:42.415Z,65.30
2017-11-09T08:48:09.903Z,65.20
2017-11-09T08:50:37.407Z,65.10
2017-11-09T08:53:04.895Z,65.30
2017-11-09T08:55:32.377Z,65.40
2017-11-09T08:58:00.606Z,65.10
2017-11-09T09:00:28.090Z,65.00
2017-11-09T09:02:56.328Z,65.10
2017-11-09T09:05:23.878Z,65.00
2017-11-09T09:07:51.342Z,64.80
2017-11-09T09:10:18.805Z,64.50
2017-11-09T09:12:46.298Z,64.40
2017-11-09T09:15:15.058Z,64.60
2017-11-09T09:17:42.519Z,64.50
2017-11-09T09:20:10.016Z,64.60
2017-11-09T09:22:53.132Z,64.40
2017-11-09T09:25:32.444Z,64.40
2017-11-09T09:27:59.938Z,63.30
2017-11-09T09:30:27.399Z,63.20
2017-11-09T09:33:04.332Z,62.50
2017-11-09T09:35:38.363Z,62.30
2017-11-09T09:38:09.703Z,62.40
2017-11-09T09:40:39.131Z,62.60
2017-11-09T09:43:07.417Z,62.50
2017-11-09T09:45:35.004Z,62.40
2017-11-09T09:48:03.239Z,62.10
2017-11-09T09:50:30.739Z,62.00
2017-11-09T09:52:58.227Z,62.00
2017-11-09T09:55:25.684Z,61.70
2017-11-09T09:57:53.170Z,61.50
2017-11-09T10:00:20.631Z,61.60
2017-11-09T10:02:48.118Z,61.60
2017-11-09T10:05:15.574Z,61.50
2017-11-09T10:07:43.050Z,61.20
2017-11-09T10:10:10.508Z,61.10
2017-11-09T10:12:37.987Z,60.60
2017-11-09T10:15:05.519Z,60.60
2017-11-09T10:17:32.980Z,61.50
2017-11-09T10:20:00.459Z,60.50
2017-11-09T10:22:27.938Z,60.60
2017-11-09T10:24:55.460Z,60.60
2017-11-09T10:27:22.926Z,60.80
2017-11-09T10:29:50.425Z,60.70
2017-11-09T10:32:20.944Z,60.10
2017-11-09T10:34:48.896Z,60.50
2017-11-09T10:37:16.417Z,60.60
2017-11-09T10:39:43.895Z,60.40
2017-11-09T10:42:11.373Z,60.40
2017-11-09T10:44:38.875Z,60.50
2017-11-09T10:47:06.415Z,60.40
2017-11-09T10:49:33.879Z,60.50
2017-11-09T10:52:01.336Z,60.40
2017-11-09T10:54:28.821Z,60.20
2017-11-09T10:56:57.073Z,60.50
2017-11-09T10:59:24.551Z,60.50
2017-11-09T11:01:52.043Z,60.70
2017-11-09T11:04:19.532Z,61.10
2017-11-09T11:06:47.062Z,61.20
2017-11-09T11:09:14.535Z,61.20
2017-11-09T11:11:41.994Z,61.20
2017-11-09T11:14:09.508Z,61.40
2017-11-09T11:16:37.020Z,61.20
2017-11-09T11:19:12.534Z,61.40
2017-11-09T11:21:40.013Z,61.70
2017-11-09T11:24:07.472Z,61.70
2017-11-09T11:26:34.951Z,61.60
2017-11-09T11:29:02.438Z,61.90
2017-11-09T11:31:30.673Z,62.00
2017-11-09T11:33:58.159Z,62.00
2017-11-09T11:36:25.645Z,62.00
2017-11-09T11:38:53.138Z,62.00
2017-11-09T11:41:20.630Z,61.80
2017-11-09T11:43:48.127Z,61.90
2017-11-09T11:46:15.599Z,62.00
2017-11-09T11:48:43.127Z,62.10
2017-11-09T11:51:10.587Z,61.80
2017-11-09T11:53:38.092Z,61.70
2017-11-09T11:56:05.576Z,61.70
2017-11-09T11:58:33.059Z,61.40
2017-11-09T12:01:01.340Z,61.00
2017-11-09T12:03:29.758Z,61.10
2017-11-09T12:05:57.275Z,61.00
2017-11-09T12:08:24.774Z,61.30
2017-11-09T12:10:52.244Z,61.30
2017-11-09T12:13:19.723Z,61.10
2017-11-09T12:15:48.751Z,60.50
2017-11-09T12:18:17.011Z,60.40
2017-11-09T12:20:44.475Z,60.40
2017-11-09T12:23:12.731Z,61.00
2017-11-09T12:25:40.193Z,60.40
2017-11-09T12:28:07.683Z,60.70
2017-11-09T12:30:35.936Z,60.00
2017-11-09T12:33:03.400Z,59.90
2017-11-09T12:35:31.718Z,59.70
2017-11-09T12:37:59.189Z,59.60
2017-11-09T12:40:26.680Z,59.50
2017-11-09T12:42:54.129Z,59.10
2017-11-09T12:45:21.584Z,58.80
2017-11-09T12:47:49.067Z,58.60
2017-11-09T12:50:16.531Z,58.40
2017-11-09T12:52:44.777Z,58.30
2017-11-09T12:55:12.250Z,58.20
2017-11-09T12:57:39.736Z,57.90
2017-11-09T13:00:07.202Z,58.10
2017-11-09T13:02:34.691Z,57.90
2017-11-09T13:05:02.239Z,57.80
2017-11-09T13:07:29.691Z,57.60
2017-11-09T13:09:57.168Z,57.70
2017-11-09T13:12:24.651Z,58.00
2017-11-09T13:14:52.102Z,58.40
2017-11-09T13:17:19.568Z,58.70
2017-11-09T13:19:47.054Z,58.70
2017-11-09T13:22:14.511Z,58.70
2017-11-09T13:24:42.726Z,59.20
2017-11-09T13:27:10.213Z,59.10
2017-11-09T13:29:37.699Z,59.40
2017-11-09T13:32:05.191Z,59.40
2017-11-09T13:34:32.671Z,59.70
2017-11-09T13:37:00.162Z,59.80
2017-11-09T13:39:27.660Z,59.80
2017-11-09T13:41:55.130Z,59.80
2017-11-09T13:44:22.608Z,59.90
2017-11-09T13:46:50.102Z,59.90
2017-11-09T13:49:17.590Z,60.00
2017-11-09T13:51:45.056Z,60.20
2017-11-09T13:54:12.528Z,60.50
2017-11-09T13:56:40.090Z,60.30
2017-11-09T13:59:07.556Z,60.40
2017-11-09T14:01:35.032Z,60.70
2017-11-09T14:04:02.533Z,60.80
2017-11-09T14:06:30.006Z,60.70
2017-11-09T14:08:57.463Z,60.60
2017-11-09T14:11:24.963Z,60.80
2017-11-09T14:13:52.452Z,61.80
2017-11-09T14:16:20.248Z,60.90
2017-11-09T14:18:47.731Z,61.00
2017-11-09T14:21:15.209Z,60.70
2017-11-09T14:23:42.710Z,60.70
2017-11-09T14:26:10.988Z,61.00
2017-11-09T14:28:39.244Z,61.40
2017-11-09T14:31:07.496Z,62.30
2017-11-09T14:33:35.000Z,61.50
2017-11-09T14:36:02.463Z,61.70
2017-11-09T14:38:30.714Z,61.70
2017-11-09T14:40:58.233Z,61.80
2017-11-09T14:43:25.687Z,61.70
2017-11-09T14:45:53.143Z,61.80
2017-11-09T14:48:20.984Z,61.90
2017-11-09T14:50:48.467Z,61.90
2017-11-09T14:53:15.952Z,61.90
2017-11-09T14:55:43.433Z,61.90
2017-11-09T14:58:10.892Z,62.00
2017-11-09T15:00:38.369Z,62.20
2017-11-09T15:03:05.857Z,62.40
2017-11-09T15:05:33.314Z,62.40
2017-11-09T15:08:00.774Z,62.50
2017-11-09T15:10:28.275Z,62.60
2017-11-09T15:12:55.743Z,62.70
2017-11-09T15:15:23.199Z,62.60
2017-11-09T15:17:52.268Z,62.90
2017-11-09T15:20:19.730Z,62.90
2017-11-09T15:22:47.231Z,62.90
2017-11-09T15:25:14.793Z,62.90
2017-11-09T15:27:43.032Z,63.10
2017-11-09T15:30:10.503Z,63.10
2017-11-09T15:32:37.994Z,63.20
2017-11-09T15:35:05.493Z,63.40
2017-11-09T15:37:32.980Z,63.50
2017-11-09T15:40:00.450Z,63.70
2017-11-09T15:42:28.720Z,63.80
2017-11-09T15:44:56.955Z,64.40
2017-11-09T15:47:24.418Z,63.80
2017-11-09T15:49:52.913Z,64.20
2017-11-09T15:52:20.380Z,64.20
2017-11-09T15:54:47.883Z,64.20
2017-11-09T15:57:15.394Z,64.20
2017-11-09T15:59:42.867Z,64.20
2017-11-09T16:02:10.335Z,64.30
2017-11-09T16:04:38.599Z,64.50
2017-11-09T16:07:11.615Z,64.40
2017-11-09T16:09:39.102Z,64.40
2017-11-09T16:12:06.563Z,64.40
2017-11-09T16:14:34.068Z,64.50
2017-11-09T16:17:02.304Z,65.20
2017-11-09T16:19:30.739Z,64.60
2017-11-09T16:21:58.192Z,64.90
2017-11-09T16:24:26.438Z,64.70
2017-11-09T16:26:56.732Z,64.70
2017-11-09T16:29:24.211Z,64.70
2017-11-09T16:31:51.703Z,64.70
2017-11-09T16:34:19.164Z,64.70
2017-11-09T16:36:47.416Z,64.80
2017-11-09T16:39:14.903Z,64.80
2017-11-09T16:41:43.132Z,64.80
2017-11-09T16:44:10.636Z,64.80
2017-11-09T16:46:38.095Z,64.70
2017-11-09T16:49:05.565Z,64.80
2017-11-09T16:51:33.082Z,64.80
2017-11-09T16:54:00.543Z,65.60
2017-11-09T16:56:28.035Z,64.80
2017-11-09T16:58:55.534Z,64.90
2017-11-09T17:01:23.488Z,64.90
2017-11-09T17:03:50.963Z,64.90
2017-11-09T17:06:18.494Z,64.90
2017-11-09T17:08:45.974Z,64.80
2017-11-09T17:11:13.465Z,64.90
2017-11-09T17:13:40.937Z,65.00
2017-11-09T17:16:08.407Z,65.00
2017-11-09T17:18:35.898Z,65.10
2017-11-09T17:21:03.371Z,65.10
2017-11-09T17:23:30.863Z,65.20
2017-11-09T17:25:58.323Z,65.30
2017-11-09T17:28:25.808Z,65.30
2017-11-09T17:30:54.680Z,65.30
2017-11-09T17:33:22.146Z,65.30
2017-11-09T17:35:50.529Z,65.20
2017-11-09T17:38:18.779Z,65.40
2017-11-09T17:40:46.252Z,65.30
2017-11-09T17:43:13.735Z,65.30
2017-11-09T17:45:41.274Z,65.20
2017-11-09T17:48:08.722Z,65.00
2017-11-09T17:50:36.193Z,65.10
2017-11-09T17:53:04.443Z,65.80
2017-11-09T17:55:31.904Z,65.20
2017-11-09T17:57:59.380Z,65.10
2017-11-09T18:00:26.858Z,65.20
2017-11-09T18:02:55.225Z,65.30
2017-11-09T18:05:22.739Z,65.30
2017-11-09T18:07:50.226Z,65.40
2017-11-09T18:10:17.678Z,65.40
2017-11-09T18:12:45.123Z,65.60
2017-11-09T18:15:12.604Z,65.50
2017-11-09T18:17:40.063Z,65.50
2017-11-09T18:20:07.535Z,65.50
2017-11-09T18:22:36.929Z,65.50
2017-11-09T18:25:04.414Z,65.50
2017-11-09T18:27:31.908Z,65.80
2017-11-09T18:29:59.375Z,66.00
2017-11-09T18:32:26.837Z,66.20
2017-11-09T18:34:55.841Z,66.60
2017-11-09T18:37:23.310Z,66.60
2017-11-09T18:39:50.825Z,66.70
2017-11-09T18:42:18.303Z,66.60
2017-11-09T18:44:45.815Z,66.80
2017-11-09T18:47:13.295Z,66.90
2017-11-09T18:49:40.782Z,66.80
2017-11-09T18:52:08.268Z,67.00
2017-11-09T18:54:35.726Z,67.00
2017-11-09T18:57:04.039Z,68.20
2017-11-09T18:59:31.527Z,67.40
2017-11-09T19:01:59.044Z,67.40
2017-11-09T19:04:26.499Z,67.60
2017-11-09T19:06:53.958Z,67.80
2017-11-09T19:09:21.441Z,67.80
2017-11-09T19:11:48.904Z,67.90
2017-11-09T19:14:16.399Z,67.90
2017-11-09T19:16:43.876Z,67.90
2017-11-09T19:19:12.167Z,67.90
2017-11-09T19:21:40.395Z,67.90
2017-11-09T19:24:07.855Z,67.90
2017-11-09T19:26:35.435Z,68.00
2017-11-09T19:29:03.864Z,68.20
2017-11-09T19:31:31.354Z,68.20
2017-11-09T19:33:58.819Z,68.10
2017-11-09T19:36:26.343Z,68.30
2017-11-09T19:38:54.017Z,68.40
2017-11-09T19:41:22.739Z,68.40
2017-11-09T19:43:50.302Z,68.40
2017-11-09T19:46:18.147Z,68.30
2017-11-09T19:48:46.057Z,68.40
2017-11-09T19:51:13.574Z,68.50
2017-11-09T19:53:41.475Z,68.50
2017-11-09T19:56:10.108Z,68.80
2017-11-09T19:58:37.742Z,68.80
2017-11-09T20:01:05.473Z,69.00
2017-11-09T20:03:33.087Z,69.10
2017-11-09T20:06:00.921Z,69.10
2017-11-09T20:08:28.845Z,69.10
2017-11-09T20:10:56.662Z,69.20
2017-11-09T20:13:25.177Z,70.60
2017-11-09T20:15:52.784Z,70.50
2017-11-09T20:18:20.442Z,69.50
2017-11-09T20:20:48.798Z,69.40
2017-11-09T20:23:16.436Z,69.30
2017-11-09T20:25:43.923Z,69.40
2017-11-09T20:28:11.710Z,70.60
2017-11-09T20:30:39.331Z,70.70
2017-11-09T20:33:06.829Z,69.60
2017-11-09T20:35:34.810Z,69.70
2017-11-09T20:38:03.135Z,69.60
2017-11-09T20:40:30.679Z,69.60
2017-11-09T20:42:58.471Z,69.60
2017-11-09T20:45:27.049Z,69.50
2017-11-09T20:47:55.536Z,69.60
2017-11-09T20:50:23.416Z,69.60
2017-11-09T20:52:52.211Z,69.70
2017-11-09T20:55:20.906Z,69.60
2017-11-09T20:57:48.700Z,69.60
2017-11-09T21:00:17.025Z,69.60
2017-11-09T21:02:44.815Z,69.60
2017-11-09T21:05:12.320Z,69.60
2017-11-09T21:07:39.883Z,69.60
2017-11-09T21:10:07.417Z,69.60
2017-11-09T21:12:35.830Z,69.80
2017-11-09T21:15:03.681Z,69.80
2017-11-09T21:17:31.212Z,69.70
2017-11-09T21:19:58.715Z,69.70
2017-11-09T21:22:26.269Z,69.70
2017-11-09T21:24:53.781Z,69.70
2017-11-09T21:27:21.281Z,69.60
2017-11-09T21:29:48.788Z,69.60
2017-11-09T21:32:17.043Z,69.60
2017-11-09T21:34:44.519Z,69.70
2017-11-09T21:37:12.062Z,69.70
2017-11-09T21:39:39.546Z,70.60
2017-11-09T21:42:07.024Z,69.80
2017-11-09T21:44:34.540Z,69.90
2017-11-09T21:47:02.060Z,69.90
2017-11-09T21:49:30.313Z,70.00
2017-11-09T21:51:58.802Z,70.00
2017-11-09T21:54:26.253Z,70.00
2017-11-09T21:56:53.720Z,70.00
2017-11-09T21:59:21.203Z,69.90
2017-11-09T22:01:49.463Z,69.90
2017-11-09T22:04:16.943Z,69.80
2017-11-09T22:06:44.426Z,70.00
2017-11-09T22:09:11.927Z,70.20
2017-11-09T22:11:39.410Z,70.40
2017-11-09T22:14:06.899Z,70.40
2017-11-09T22:16:34.420Z,70.40
2017-11-09T22:19:02.851Z,70.80
2017-11-09T22:21:30.327Z,70.80
2017-11-09T22:23:58.711Z,71.90
2017-11-09T22:26:26.213Z,70.90
2017-11-09T22:28:53.687Z,72.20
2017-11-09T22:31:21.160Z,72.40
2017-11-09T22:33:48.634Z,72.50
2017-11-09T22:36:16.087Z,72.50
2017-11-09T22:38:43.570Z,72.70
2017-11-09T22:41:11.039Z,72.70
2017-11-09T22:43:39.295Z,73.00
2017-11-09T22:46:06.798Z,72.80
2017-11-09T22:48:34.320Z,72.90
2017-11-09T22:51:01.778Z,73.10
2017-11-09T22:53:29.239Z,73.20
2017-11-09T22:55:56.903Z,73.40
2017-11-09T22:58:24.399Z,73.40
2017-11-09T23:00:51.855Z,73.50
2017-11-09T23:03:19.352Z,72.30
2017-11-09T23:05:46.921Z,72.30
2017-11-09T23:08:14.394Z,72.20
2017-11-09T23:10:41.884Z,72.20
2017-11-09T23:13:09.343Z,72.30
2017-11-09T23:15:36.892Z,72.30
2017-11-09T23:18:05.134Z,73.70
2017-11-09T23:20:33.379Z,73.90
2017-11-09T23:23:00.843Z,73.90
2017-11-09T23:25:28.304Z,74.00
2017-11-09T23:27:55.775Z,74.00
2017-11-09T23:30:23.235Z,74.10
2017-11-09T23:32:50.719Z,72.90
2017-11-09T23:35:18.979Z,73.20
2017-11-09T23:37:46.462Z,72.90
2017-11-09T23:40:14.686Z,73.00
2017-11-09T23:42:42.175Z,73.00
2017-11-09T23:45:09.666Z,73.80
2017-11-09T23:47:37.908Z,73.00
2017-11-09T23:50:05.377Z,73.00
2017-11-09T23:52:32.953Z,73.90
2017-11-09T23:55:01.182Z,73.40
2017-11-09T23:57:28.654Z,74.40
2017-11-09T23:59:56.109Z,73.50
